sensor_id;sensor_type;location;lat;lon;timestamp;P1;durP1;ratioP1;P2;durP2;ratioP2
13785;SDS011;47474;48.824;9.384;2022-08-24T00:02:17;4.60;;;3.10;;
13785;SDS011;47474;48.824;9.384;2022-08-24T00:04:43;4.15;;;3.17;;
13785;SDS011;47474;48.824;9.384;2022-08-24T00:07:10;3.90;;;2.97;;
13785;SDS011;47474;48.824;9.384;2022-08-24T00:09:37;4.03;;;3.25;;
13785;SDS011;47474;48.824;9.384;2022-08-24T00:12:05;3.28;;;2.80;;
13785;SDS011;47474;48.824;9.384;2022-08-24T00:14:38;3.40;;;3.10;;
13785;SDS011;47474;48.824;9.384;2022-08-24T00:17:05;4.00;;;3.10;;
13785;SDS011;47474;48.824;9.384;2022-08-24T00:19:36;3.78;;;2.97;;
13785;SDS011;47474;48.824;9.384;2022-08-24T00:22:03;3.15;;;2.95;;
13785;SDS011;47474;48.824;9.384;2022-08-24T00:24:30;5.63;;;2.97;;
13785;SDS011;47474;48.824;9.384;2022-08-24T00:27:00;4.35;;;3.03;;
13785;SDS011;47474;48.824;9.384;2022-08-24T00:29:28;3.50;;;2.90;;
13785;SDS011;47474;48.824;9.384;2022-08-24T00:31:55;3.22;;;2.92;;
13785;SDS011;47474;48.824;9.384;2022-08-24T00:34:28;2.83;;;2.58;;
13785;SDS011;47474;48.824;9.384;2022-08-24T00:36:57;4.53;;;3.20;;
13785;SDS011;47474;48.824;9.384;2022-08-24T00:39:27;3.47;;;3.17;;
13785;SDS011;47474;48.824;9.384;2022-08-24T00:41:53;4.55;;;3.15;;
13785;SDS011;47474;48.824;9.384;2022-08-24T00:44:24;3.28;;;2.97;;
13785;SDS011;47474;48.824;9.384;2022-08-24T00:46:56;6.30;;;3.20;;
13785;SDS011;47474;48.824;9.384;2022-08-24T00:49:26;4.65;;;3.42;;
13785;SDS011;47474;48.824;9.384;2022-08-24T00:51:57;3.25;;;3.05;;
13785;SDS011;47474;48.824;9.384;2022-08-24T00:54:29;3.83;;;3.30;;
13785;SDS011;47474;48.824;9.384;2022-08-24T00:56:59;3.88;;;2.90;;
13785;SDS011;47474;48.824;9.384;2022-08-24T00:59:31;5.13;;;3.00;;
13785;SDS011;47474;48.824;9.384;2022-08-24T01:02:02;3.67;;;3.15;;
13785;SDS011;47474;48.824;9.384;2022-08-24T01:04:37;4.28;;;3.10;;
13785;SDS011;47474;48.824;9.384;2022-08-24T01:07:13;3.58;;;2.72;;
13785;SDS011;47474;48.824;9.384;2022-08-24T01:09:42;3.35;;;2.35;;
13785;SDS011;47474;48.824;9.384;2022-08-24T01:12:11;3.70;;;3.28;;
13785;SDS011;47474;48.824;9.384;2022-08-24T01:14:41;3.50;;;3.22;;
13785;SDS011;47474;48.824;9.384;2022-08-24T01:17:13;3.20;;;3.00;;
13785;SDS011;47474;48.824;9.384;2022-08-24T01:19:58;4.20;;;3.38;;
13785;SDS011;47474;48.824;9.384;2022-08-24T01:25:19;3.63;;;3.33;;
13785;SDS011;47474;48.824;9.384;2022-08-24T01:27:47;3.40;;;3.10;;
13785;SDS011;47474;48.824;9.384;2022-08-24T01:30:15;3.63;;;3.20;;
13785;SDS011;47474;48.824;9.384;2022-08-24T01:32:51;3.60;;;3.13;;
13785;SDS011;47474;48.824;9.384;2022-08-24T01:35:18;3.97;;;3.42;;
13785;SDS011;47474;48.824;9.384;2022-08-24T01:37:47;3.40;;;3.10;;
13785;SDS011;47474;48.824;9.384;2022-08-24T01:40:14;3.28;;;2.95;;
13785;SDS011;47474;48.824;9.384;2022-08-24T01:42:47;3.47;;;2.85;;
13785;SDS011;47474;48.824;9.384;2022-08-24T01:45:18;3.00;;;2.80;;
13785;SDS011;47474;48.824;9.384;2022-08-24T01:48:06;3.10;;;2.85;;
13785;SDS011;47474;48.824;9.384;2022-08-24T01:50:33;5.13;;;2.90;;
13785;SDS011;47474;48.824;9.384;2022-08-24T01:53:04;4.50;;;2.97;;
13785;SDS011;47474;48.824;9.384;2022-08-24T01:55:31;3.28;;;2.97;;
13785;SDS011;47474;48.824;9.384;2022-08-24T01:57:58;4.00;;;3.47;;
13785;SDS011;47474;48.824;9.384;2022-08-24T02:00:25;3.95;;;3.45;;
13785;SDS011;47474;48.824;9.384;2022-08-24T02:02:55;3.55;;;3.25;;
13785;SDS011;47474;48.824;9.384;2022-08-24T02:05:23;3.80;;;3.50;;
13785;SDS011;47474;48.824;9.384;2022-08-24T02:07:53;3.78;;;3.47;;
13785;SDS011;47474;48.824;9.384;2022-08-24T02:10:22;3.60;;;3.13;;
13785;SDS011;47474;48.824;9.384;2022-08-24T02:12:49;4.70;;;3.60;;
13785;SDS011;47474;48.824;9.384;2022-08-24T02:15:23;5.40;;;3.58;;
13785;SDS011;47474;48.824;9.384;2022-08-24T02:17:52;5.45;;;3.08;;
13785;SDS011;47474;48.824;9.384;2022-08-24T02:20:19;5.85;;;3.65;;
13785;SDS011;47474;48.824;9.384;2022-08-24T02:22:51;4.13;;;3.67;;
13785;SDS011;47474;48.824;9.384;2022-08-24T02:25:19;3.60;;;3.17;;
13785;SDS011;47474;48.824;9.384;2022-08-24T02:27:47;3.60;;;3.30;;
13785;SDS011;47474;48.824;9.384;2022-08-24T02:30:14;3.83;;;3.42;;
13785;SDS011;47474;48.824;9.384;2022-08-24T02:32:41;4.18;;;3.88;;
13785;SDS011;47474;48.824;9.384;2022-08-24T02:35:08;3.17;;;2.88;;
13785;SDS011;47474;48.824;9.384;2022-08-24T02:37:38;3.78;;;3.47;;
13785;SDS011;47474;48.824;9.384;2022-08-24T02:47:50;3.75;;;3.28;;
13785;SDS011;47474;48.824;9.384;2022-08-24T02:50:20;3.40;;;3.10;;
13785;SDS011;47474;48.824;9.384;2022-08-24T02:52:50;3.45;;;3.08;;
13785;SDS011;47474;48.824;9.384;2022-08-24T02:55:18;3.67;;;2.83;;
13785;SDS011;47474;48.824;9.384;2022-08-24T02:57:47;3.13;;;2.92;;
13785;SDS011;47474;48.824;9.384;2022-08-24T03:00:15;5.90;;;3.25;;
13785;SDS011;47474;48.824;9.384;2022-08-24T03:02:46;4.88;;;3.55;;
13785;SDS011;47474;48.824;9.384;2022-08-24T03:05:18;4.90;;;3.58;;
13785;SDS011;47474;48.824;9.384;2022-08-24T03:07:45;5.47;;;3.72;;
13785;SDS011;47474;48.824;9.384;2022-08-24T03:10:18;4.20;;;3.65;;
13785;SDS011;47474;48.824;9.384;2022-08-24T03:12:45;3.60;;;3.30;;
13785;SDS011;47474;48.824;9.384;2022-08-24T03:15:12;4.15;;;3.85;;
13785;SDS011;47474;48.824;9.384;2022-08-24T03:17:39;4.10;;;3.50;;
13785;SDS011;47474;48.824;9.384;2022-08-24T03:20:08;5.18;;;3.38;;
13785;SDS011;47474;48.824;9.384;2022-08-24T03:22:38;5.07;;;3.42;;
13785;SDS011;47474;48.824;9.384;2022-08-24T03:25:11;3.50;;;3.20;;
13785;SDS011;47474;48.824;9.384;2022-08-24T03:27:42;5.38;;;3.72;;
13785;SDS011;47474;48.824;9.384;2022-08-24T03:30:11;3.85;;;3.13;;
13785;SDS011;47474;48.824;9.384;2022-08-24T03:32:39;6.65;;;3.10;;
13785;SDS011;47474;48.824;9.384;2022-08-24T03:35:07;3.42;;;3.13;;
13785;SDS011;47474;48.824;9.384;2022-08-24T03:37:50;3.00;;;2.78;;
13785;SDS011;47474;48.824;9.384;2022-08-24T03:40:16;3.80;;;3.47;;
13785;SDS011;47474;48.824;9.384;2022-08-24T03:42:44;5.20;;;3.35;;
13785;SDS011;47474;48.824;9.384;2022-08-24T03:45:14;4.28;;;3.42;;
13785;SDS011;47474;48.824;9.384;2022-08-24T03:47:41;3.95;;;3.65;;
13785;SDS011;47474;48.824;9.384;2022-08-24T03:50:10;4.50;;;2.80;;
13785;SDS011;47474;48.824;9.384;2022-08-24T03:52:39;4.07;;;3.28;;
13785;SDS011;47474;48.824;9.384;2022-08-24T03:55:09;3.85;;;3.47;;
13785;SDS011;47474;48.824;9.384;2022-08-24T03:57:37;3.17;;;2.88;;
13785;SDS011;47474;48.824;9.384;2022-08-24T04:00:08;3.17;;;2.90;;
13785;SDS011;47474;48.824;9.384;2022-08-24T04:02:40;3.35;;;3.13;;
13785;SDS011;47474;48.824;9.384;2022-08-24T04:05:08;4.22;;;3.30;;
13785;SDS011;47474;48.824;9.384;2022-08-24T04:07:42;3.70;;;3.10;;
13785;SDS011;47474;48.824;9.384;2022-08-24T04:10:11;3.90;;;3.30;;
13785;SDS011;47474;48.824;9.384;2022-08-24T04:12:38;3.58;;;3.28;;
13785;SDS011;47474;48.824;9.384;2022-08-24T04:15:05;4.20;;;3.40;;
13785;SDS011;47474;48.824;9.384;2022-08-24T04:17:32;4.30;;;3.70;;
13785;SDS011;47474;48.824;9.384;2022-08-24T04:19:59;3.78;;;3.42;;
13785;SDS011;47474;48.824;9.384;2022-08-24T04:22:28;4.30;;;3.33;;
13785;SDS011;47474;48.824;9.384;2022-08-24T04:24:58;4.15;;;3.55;;
13785;SDS011;47474;48.824;9.384;2022-08-24T04:27:26;4.22;;;3.85;;
13785;SDS011;47474;48.824;9.384;2022-08-24T04:29:52;3.92;;;3.47;;
13785;SDS011;47474;48.824;9.384;2022-08-24T04:32:19;4.05;;;3.65;;
13785;SDS011;47474;48.824;9.384;2022-08-24T04:34:46;5.28;;;4.78;;
13785;SDS011;47474;48.824;9.384;2022-08-24T04:37:13;5.47;;;4.18;;
13785;SDS011;47474;48.824;9.384;2022-08-24T04:39:39;5.10;;;3.83;;
13785;SDS011;47474;48.824;9.384;2022-08-24T04:42:07;3.72;;;3.40;;
13785;SDS011;47474;48.824;9.384;2022-08-24T04:44:35;5.68;;;3.83;;
13785;SDS011;47474;48.824;9.384;2022-08-24T04:47:02;3.50;;;3.20;;
13785;SDS011;47474;48.824;9.384;2022-08-24T04:49:29;3.55;;;3.20;;
13785;SDS011;47474;48.824;9.384;2022-08-24T04:51:57;3.78;;;3.45;;
13785;SDS011;47474;48.824;9.384;2022-08-24T04:54:24;4.07;;;3.72;;
13785;SDS011;47474;48.824;9.384;2022-08-24T04:56:51;4.25;;;3.85;;
13785;SDS011;47474;48.824;9.384;2022-08-24T04:59:18;4.03;;;3.65;;
13785;SDS011;47474;48.824;9.384;2022-08-24T05:01:46;4.25;;;3.70;;
13785;SDS011;47474;48.824;9.384;2022-08-24T05:04:12;5.55;;;3.80;;
13785;SDS011;47474;48.824;9.384;2022-08-24T05:06:39;6.00;;;3.53;;
13785;SDS011;47474;48.824;9.384;2022-08-24T05:09:06;3.45;;;3.15;;
13785;SDS011;47474;48.824;9.384;2022-08-24T05:11:33;3.63;;;3.30;;
13785;SDS011;47474;48.824;9.384;2022-08-24T05:14:01;4.20;;;3.65;;
13785;SDS011;47474;48.824;9.384;2022-08-24T05:16:28;4.32;;;3.92;;
13785;SDS011;47474;48.824;9.384;2022-08-24T05:18:57;5.95;;;3.75;;
13785;SDS011;47474;48.824;9.384;2022-08-24T05:21:25;3.92;;;3.63;;
13785;SDS011;47474;48.824;9.384;2022-08-24T05:23:52;5.75;;;4.40;;
13785;SDS011;47474;48.824;9.384;2022-08-24T05:26:20;4.40;;;3.60;;
13785;SDS011;47474;48.824;9.384;2022-08-24T05:28:50;4.03;;;3.65;;
13785;SDS011;47474;48.824;9.384;2022-08-24T05:31:20;4.10;;;3.60;;
13785;SDS011;47474;48.824;9.384;2022-08-24T05:33:48;3.50;;;3.20;;
13785;SDS011;47474;48.824;9.384;2022-08-24T05:39:09;3.55;;;2.92;;
13785;SDS011;47474;48.824;9.384;2022-08-24T05:41:40;5.05;;;3.58;;
13785;SDS011;47474;48.824;9.384;2022-08-24T05:44:08;4.25;;;3.85;;
13785;SDS011;47474;48.824;9.384;2022-08-24T05:46:38;4.22;;;3.30;;
13785;SDS011;47474;48.824;9.384;2022-08-24T05:49:04;3.38;;;3.08;;
13785;SDS011;47474;48.824;9.384;2022-08-24T05:51:33;3.72;;;3.25;;
13785;SDS011;47474;48.824;9.384;2022-08-24T05:54:01;3.67;;;3.38;;
13785;SDS011;47474;48.824;9.384;2022-08-24T05:56:29;3.65;;;3.30;;
13785;SDS011;47474;48.824;9.384;2022-08-24T05:58:57;3.78;;;3.45;;
13785;SDS011;47474;48.824;9.384;2022-08-24T06:01:43;3.90;;;3.60;;
13785;SDS011;47474;48.824;9.384;2022-08-24T06:04:19;3.03;;;2.83;;
13785;SDS011;47474;48.824;9.384;2022-08-24T06:06:51;5.35;;;3.70;;
13785;SDS011;47474;48.824;9.384;2022-08-24T06:09:18;3.38;;;3.08;;
13785;SDS011;47474;48.824;9.384;2022-08-24T06:11:46;3.55;;;2.97;;
13785;SDS011;47474;48.824;9.384;2022-08-24T06:14:24;3.42;;;2.75;;
13785;SDS011;47474;48.824;9.384;2022-08-24T06:16:51;3.88;;;3.22;;
13785;SDS011;47474;48.824;9.384;2022-08-24T06:19:26;4.95;;;3.00;;
13785;SDS011;47474;48.824;9.384;2022-08-24T06:21:54;4.78;;;3.55;;
13785;SDS011;47474;48.824;9.384;2022-08-24T06:24:23;3.20;;;2.90;;
13785;SDS011;47474;48.824;9.384;2022-08-24T06:27:04;3.10;;;2.80;;
13785;SDS011;47474;48.824;9.384;2022-08-24T06:29:46;2.92;;;2.63;;
13785;SDS011;47474;48.824;9.384;2022-08-24T06:32:27;3.05;;;2.75;;
13785;SDS011;47474;48.824;9.384;2022-08-24T06:34:56;3.40;;;3.10;;
13785;SDS011;47474;48.824;9.384;2022-08-24T06:37:28;3.53;;;3.22;;
13785;SDS011;47474;48.824;9.384;2022-08-24T06:39:57;3.33;;;3.03;;
13785;SDS011;47474;48.824;9.384;2022-08-24T06:42:29;4.20;;;3.42;;
13785;SDS011;47474;48.824;9.384;2022-08-24T06:44:58;3.28;;;2.97;;
13785;SDS011;47474;48.824;9.384;2022-08-24T06:47:29;3.47;;;3.17;;
13785;SDS011;47474;48.824;9.384;2022-08-24T06:49:58;2.95;;;2.67;;
13785;SDS011;47474;48.824;9.384;2022-08-24T06:52:37;3.00;;;2.70;;
13785;SDS011;47474;48.824;9.384;2022-08-24T06:55:10;3.10;;;2.80;;
13785;SDS011;47474;48.824;9.384;2022-08-24T06:57:41;3.65;;;2.40;;
13785;SDS011;47474;48.824;9.384;2022-08-24T07:00:09;3.67;;;3.00;;
13785;SDS011;47474;48.824;9.384;2022-08-24T07:03:04;4.78;;;3.22;;
13785;SDS011;47474;48.824;9.384;2022-08-24T07:05:37;4.70;;;3.10;;
13785;SDS011;47474;48.824;9.384;2022-08-24T07:08:11;3.45;;;2.90;;
13785;SDS011;47474;48.824;9.384;2022-08-24T07:10:41;6.10;;;3.10;;
13785;SDS011;47474;48.824;9.384;2022-08-24T07:13:08;3.55;;;3.22;;
13785;SDS011;47474;48.824;9.384;2022-08-24T07:15:35;3.17;;;2.88;;
13785;SDS011;47474;48.824;9.384;2022-08-24T07:18:02;3.38;;;3.08;;
13785;SDS011;47474;48.824;9.384;2022-08-24T07:20:33;6.47;;;3.88;;
13785;SDS011;47474;48.824;9.384;2022-08-24T07:23:00;4.00;;;3.17;;
13785;SDS011;47474;48.824;9.384;2022-08-24T07:25:30;3.00;;;2.70;;
13785;SDS011;47474;48.824;9.384;2022-08-24T07:28:06;3.83;;;3.15;;
13785;SDS011;47474;48.824;9.384;2022-08-24T07:30:36;4.38;;;2.85;;
13785;SDS011;47474;48.824;9.384;2022-08-24T07:36:29;2.58;;;2.38;;
13785;SDS011;47474;48.824;9.384;2022-08-24T07:40:01;5.00;;;3.08;;
13785;SDS011;47474;48.824;9.384;2022-08-24T07:54:42;3.38;;;2.40;;
13785;SDS011;47474;48.824;9.384;2022-08-24T07:57:39;2.95;;;2.28;;
13785;SDS011;47474;48.824;9.384;2022-08-24T08:04:15;2.33;;;2.13;;
13785;SDS011;47474;48.824;9.384;2022-08-24T08:07:13;2.28;;;2.08;;
13785;SDS011;47474;48.824;9.384;2022-08-24T08:12:45;1.88;;;1.77;;
13785;SDS011;47474;48.824;9.384;2022-08-24T08:15:14;4.03;;;2.05;;
13785;SDS011;47474;48.824;9.384;2022-08-24T08:17:43;1.75;;;1.50;;
13785;SDS011;47474;48.824;9.384;2022-08-24T08:20:11;1.95;;;1.85;;
13785;SDS011;47474;48.824;9.384;2022-08-24T08:22:43;2.35;;;2.15;;
13785;SDS011;47474;48.824;9.384;2022-08-24T08:32:08;2.15;;;1.80;;
13785;SDS011;47474;48.824;9.384;2022-08-24T08:35:46;1.88;;;1.55;;
13785;SDS011;47474;48.824;9.384;2022-08-24T08:38:19;1.95;;;1.70;;
13785;SDS011;47474;48.824;9.384;2022-08-24T08:41:24;2.00;;;1.65;;
13785;SDS011;47474;48.824;9.384;2022-08-24T08:44:14;1.60;;;1.50;;
13785;SDS011;47474;48.824;9.384;2022-08-24T08:46:57;2.30;;;1.52;;
13785;SDS011;47474;48.824;9.384;2022-08-24T08:55:37;1.63;;;1.52;;
13785;SDS011;47474;48.824;9.384;2022-08-24T08:58:08;2.17;;;1.83;;
13785;SDS011;47474;48.824;9.384;2022-08-24T09:00:56;1.95;;;1.80;;
13785;SDS011;47474;48.824;9.384;2022-08-24T09:03:42;2.88;;;1.83;;
13785;SDS011;47474;48.824;9.384;2022-08-24T09:30:33;3.72;;;1.77;;
13785;SDS011;47474;48.824;9.384;2022-08-24T09:33:12;3.33;;;1.70;;
13785;SDS011;47474;48.824;9.384;2022-08-24T09:35:51;1.73;;;1.63;;
13785;SDS011;47474;48.824;9.384;2022-08-24T09:38:33;1.95;;;1.75;;
13785;SDS011;47474;48.824;9.384;2022-08-24T10:51:41;3.40;;;3.10;;
13785;SDS011;47474;48.824;9.384;2022-08-24T10:54:21;15.60;;;14.05;;
13785;SDS011;47474;48.824;9.384;2022-08-24T10:56:52;12.00;;;10.40;;
13785;SDS011;47474;48.824;9.384;2022-08-24T10:59:30;4.03;;;3.63;;
13785;SDS011;47474;48.824;9.384;2022-08-24T11:02:06;1.50;;;1.40;;
13785;SDS011;47474;48.824;9.384;2022-08-24T11:04:34;6.63;;;4.45;;
13785;SDS011;47474;48.824;9.384;2022-08-24T11:07:04;2.88;;;2.20;;
13785;SDS011;47474;48.824;9.384;2022-08-24T11:09:44;1.42;;;1.30;;
13785;SDS011;47474;48.824;9.384;2022-08-24T11:12:16;1.45;;;1.35;;
13785;SDS011;47474;48.824;9.384;2022-08-24T11:14:47;1.83;;;1.73;;
13785;SDS011;47474;48.824;9.384;2022-08-24T11:17:18;1.77;;;1.67;;
13785;SDS011;47474;48.824;9.384;2022-08-24T11:19:47;1.60;;;1.50;;
13785;SDS011;47474;48.824;9.384;2022-08-24T11:22:33;1.55;;;1.45;;
13785;SDS011;47474;48.824;9.384;2022-08-24T11:25:37;1.80;;;1.48;;
13785;SDS011;47474;48.824;9.384;2022-08-24T11:28:19;1.50;;;1.40;;
13785;SDS011;47474;48.824;9.384;2022-08-24T11:31:59;1.33;;;1.23;;
13785;SDS011;47474;48.824;9.384;2022-08-24T11:34:30;1.50;;;1.30;;
13785;SDS011;47474;48.824;9.384;2022-08-24T11:37:43;1.98;;;1.65;;
13785;SDS011;47474;48.824;9.384;2022-08-24T11:40:51;1.42;;;1.33;;
13785;SDS011;47474;48.824;9.384;2022-08-24T11:43:40;3.60;;;1.45;;
13785;SDS011;47474;48.824;9.384;2022-08-24T11:46:15;3.00;;;1.60;;
13785;SDS011;47474;48.824;9.384;2022-08-24T11:49:06;2.38;;;1.17;;
13785;SDS011;47474;48.824;9.384;2022-08-24T11:51:44;1.50;;;1.25;;
13785;SDS011;47474;48.824;9.384;2022-08-24T11:54:43;1.45;;;1.35;;
13785;SDS011;47474;48.824;9.384;2022-08-24T11:57:58;4.45;;;1.30;;
13785;SDS011;47474;48.824;9.384;2022-08-24T12:00:53;1.52;;;1.42;;
13785;SDS011;47474;48.824;9.384;2022-08-24T12:03:49;1.60;;;1.45;;
13785;SDS011;47474;48.824;9.384;2022-08-24T12:06:58;1.65;;;1.50;;
13785;SDS011;47474;48.824;9.384;2022-08-24T12:13:36;1.30;;;1.20;;
13785;SDS011;47474;48.824;9.384;2022-08-24T12:16:33;2.97;;;1.50;;
13785;SDS011;47474;48.824;9.384;2022-08-24T12:19:05;2.08;;;1.27;;
13785;SDS011;47474;48.824;9.384;2022-08-24T12:22:02;1.30;;;1.20;;
13785;SDS011;47474;48.824;9.384;2022-08-24T12:24:57;1.30;;;1.20;;
13785;SDS011;47474;48.824;9.384;2022-08-24T12:31:39;1.52;;;1.30;;
13785;SDS011;47474;48.824;9.384;2022-08-24T12:41:23;1.60;;;1.30;;
13785;SDS011;47474;48.824;9.384;2022-08-24T12:44:11;1.58;;;1.48;;
13785;SDS011;47474;48.824;9.384;2022-08-24T12:47:05;3.78;;;1.85;;
13785;SDS011;47474;48.824;9.384;2022-08-24T12:49:53;1.55;;;1.45;;
13785;SDS011;47474;48.824;9.384;2022-08-24T12:59:18;1.52;;;1.40;;
13785;SDS011;47474;48.824;9.384;2022-08-24T13:05:19;1.70;;;1.60;;
13785;SDS011;47474;48.824;9.384;2022-08-24T13:08:11;2.42;;;1.30;;
13785;SDS011;47474;48.824;9.384;2022-08-24T13:11:04;2.15;;;2.00;;
13785;SDS011;47474;48.824;9.384;2022-08-24T13:17:29;1.75;;;1.42;;
13785;SDS011;47474;48.824;9.384;2022-08-24T13:20:25;2.33;;;1.65;;
13785;SDS011;47474;48.824;9.384;2022-08-24T13:23:05;1.92;;;1.55;;
13785;SDS011;47474;48.824;9.384;2022-08-24T13:25:55;1.80;;;1.50;;
13785;SDS011;47474;48.824;9.384;2022-08-24T13:28:37;1.80;;;1.70;;
13785;SDS011;47474;48.824;9.384;2022-08-24T13:31:42;1.40;;;1.30;;
13785;SDS011;47474;48.824;9.384;2022-08-24T13:35:03;1.60;;;1.50;;
13785;SDS011;47474;48.824;9.384;2022-08-24T13:48:25;3.00;;;1.70;;
13785;SDS011;47474;48.824;9.384;2022-08-24T13:51:28;3.20;;;1.83;;
13785;SDS011;47474;48.824;9.384;2022-08-24T13:54:12;1.85;;;1.50;;
13785;SDS011;47474;48.824;9.384;2022-08-24T13:57:00;1.38;;;1.27;;
13785;SDS011;47474;48.824;9.384;2022-08-24T13:59:46;1.45;;;1.30;;
13785;SDS011;47474;48.824;9.384;2022-08-24T14:12:37;1.40;;;1.30;;
13785;SDS011;47474;48.824;9.384;2022-08-24T14:15:43;2.00;;;1.40;;
13785;SDS011;47474;48.824;9.384;2022-08-24T14:25:38;2.10;;;1.90;;
13785;SDS011;47474;48.824;9.384;2022-08-24T14:31:49;1.80;;;1.70;;
13785;SDS011;47474;48.824;9.384;2022-08-24T14:37:57;3.08;;;1.65;;
13785;SDS011;47474;48.824;9.384;2022-08-24T14:40:28;1.70;;;1.60;;
13785;SDS011;47474;48.824;9.384;2022-08-24T14:42:59;1.80;;;1.70;;
13785;SDS011;47474;48.824;9.384;2022-08-24T14:45:33;2.00;;;1.60;;
13785;SDS011;47474;48.824;9.384;2022-08-24T14:48:05;1.80;;;1.70;;
13785;SDS011;47474;48.824;9.384;2022-08-24T14:50:41;2.85;;;1.70;;
13785;SDS011;47474;48.824;9.384;2022-08-24T14:53:19;1.38;;;1.27;;
13785;SDS011;47474;48.824;9.384;2022-08-24T14:55:59;1.75;;;1.65;;
13785;SDS011;47474;48.824;9.384;2022-08-24T14:58:31;1.55;;;1.45;;
13785;SDS011;47474;48.824;9.384;2022-08-24T15:01:06;1.35;;;1.25;;
13785;SDS011;47474;48.824;9.384;2022-08-24T15:04:00;1.70;;;1.60;;
13785;SDS011;47474;48.824;9.384;2022-08-24T15:06:36;2.03;;;1.70;;
13785;SDS011;47474;48.824;9.384;2022-08-24T15:09:08;1.75;;;1.65;;
13785;SDS011;47474;48.824;9.384;2022-08-24T15:11:45;2.90;;;1.70;;
13785;SDS011;47474;48.824;9.384;2022-08-24T15:14:19;1.98;;;1.77;;
13785;SDS011;47474;48.824;9.384;2022-08-24T15:17:04;1.42;;;1.33;;
13785;SDS011;47474;48.824;9.384;2022-08-24T15:19:34;1.73;;;1.52;;
13785;SDS011;47474;48.824;9.384;2022-08-24T15:22:12;2.30;;;1.23;;
13785;SDS011;47474;48.824;9.384;2022-08-24T15:24:50;2.25;;;1.75;;
13785;SDS011;47474;48.824;9.384;2022-08-24T15:27:21;3.50;;;1.60;;
13785;SDS011;47474;48.824;9.384;2022-08-24T15:29:53;1.77;;;1.58;;
13785;SDS011;47474;48.824;9.384;2022-08-24T15:32:39;2.17;;;1.98;;
13785;SDS011;47474;48.824;9.384;2022-08-24T15:35:20;1.60;;;1.50;;
13785;SDS011;47474;48.824;9.384;2022-08-24T15:37:48;1.55;;;1.40;;
13785;SDS011;47474;48.824;9.384;2022-08-24T15:40:15;1.70;;;1.60;;
13785;SDS011;47474;48.824;9.384;2022-08-24T15:42:49;1.65;;;1.40;;
13785;SDS011;47474;48.824;9.384;2022-08-24T15:45:15;1.60;;;1.50;;
13785;SDS011;47474;48.824;9.384;2022-08-24T15:47:44;1.80;;;1.70;;
13785;SDS011;47474;48.824;9.384;2022-08-24T15:50:18;2.10;;;1.50;;
13785;SDS011;47474;48.824;9.384;2022-08-24T15:52:47;2.90;;;1.50;;
13785;SDS011;47474;48.824;9.384;2022-08-24T15:55:27;1.45;;;1.35;;
13785;SDS011;47474;48.824;9.384;2022-08-24T15:57:58;2.38;;;1.77;;
13785;SDS011;47474;48.824;9.384;2022-08-24T16:00:36;2.00;;;1.55;;
13785;SDS011;47474;48.824;9.384;2022-08-24T16:03:21;3.92;;;1.50;;
13785;SDS011;47474;48.824;9.384;2022-08-24T16:05:49;1.63;;;1.52;;
13785;SDS011;47474;48.824;9.384;2022-08-24T16:08:16;1.67;;;1.58;;
13785;SDS011;47474;48.824;9.384;2022-08-24T16:10:44;1.67;;;1.58;;
13785;SDS011;47474;48.824;9.384;2022-08-24T16:13:20;1.52;;;1.42;;
13785;SDS011;47474;48.824;9.384;2022-08-24T16:15:50;2.03;;;1.25;;
13785;SDS011;47474;48.824;9.384;2022-08-24T16:18:22;1.77;;;1.50;;
13785;SDS011;47474;48.824;9.384;2022-08-24T16:20:50;3.35;;;1.40;;
13785;SDS011;47474;48.824;9.384;2022-08-24T16:23:21;1.33;;;1.23;;
13785;SDS011;47474;48.824;9.384;2022-08-24T16:25:50;2.30;;;1.33;;
13785;SDS011;47474;48.824;9.384;2022-08-24T16:28:45;1.92;;;1.50;;
13785;SDS011;47474;48.824;9.384;2022-08-24T16:31:14;1.65;;;1.55;;
13785;SDS011;47474;48.824;9.384;2022-08-24T16:34:18;1.40;;;1.30;;
13785;SDS011;47474;48.824;9.384;2022-08-24T16:36:47;1.50;;;1.40;;
13785;SDS011;47474;48.824;9.384;2022-08-24T16:39:14;3.35;;;1.52;;
13785;SDS011;47474;48.824;9.384;2022-08-24T16:41:42;1.48;;;1.33;;
13785;SDS011;47474;48.824;9.384;2022-08-24T16:44:09;1.42;;;1.30;;
13785;SDS011;47474;48.824;9.384;2022-08-24T16:46:37;1.60;;;1.50;;
13785;SDS011;47474;48.824;9.384;2022-08-24T16:49:04;1.80;;;1.52;;
13785;SDS011;47474;48.824;9.384;2022-08-24T16:51:30;1.48;;;1.38;;
13785;SDS011;47474;48.824;9.384;2022-08-24T16:53:57;2.65;;;1.45;;
13785;SDS011;47474;48.824;9.384;2022-08-24T16:56:24;1.70;;;1.60;;
13785;SDS011;47474;48.824;9.384;2022-08-24T16:58:53;1.50;;;1.40;;
13785;SDS011;47474;48.824;9.384;2022-08-24T17:01:19;1.50;;;1.40;;
13785;SDS011;47474;48.824;9.384;2022-08-24T17:03:46;3.38;;;1.50;;
13785;SDS011;47474;48.824;9.384;2022-08-24T17:06:12;1.40;;;1.30;;
13785;SDS011;47474;48.824;9.384;2022-08-24T17:08:42;1.42;;;1.33;;
13785;SDS011;47474;48.824;9.384;2022-08-24T17:11:09;1.48;;;1.38;;
13785;SDS011;47474;48.824;9.384;2022-08-24T17:13:37;2.25;;;1.42;;
13785;SDS011;47474;48.824;9.384;2022-08-24T17:16:05;2.28;;;1.75;;
13785;SDS011;47474;48.824;9.384;2022-08-24T17:18:32;1.48;;;1.38;;
13785;SDS011;47474;48.824;9.384;2022-08-24T17:20:58;1.90;;;1.42;;
13785;SDS011;47474;48.824;9.384;2022-08-24T17:23:25;1.73;;;1.63;;
13785;SDS011;47474;48.824;9.384;2022-08-24T17:25:52;1.67;;;1.50;;
13785;SDS011;47474;48.824;9.384;2022-08-24T17:28:18;2.05;;;1.90;;
13785;SDS011;47474;48.824;9.384;2022-08-24T17:30:45;1.50;;;1.40;;
13785;SDS011;47474;48.824;9.384;2022-08-24T17:33:13;1.90;;;1.50;;
13785;SDS011;47474;48.824;9.384;2022-08-24T17:35:40;1.77;;;1.60;;
13785;SDS011;47474;48.824;9.384;2022-08-24T17:38:06;1.88;;;1.63;;
13785;SDS011;47474;48.824;9.384;2022-08-24T17:40:33;2.10;;;1.70;;
13785;SDS011;47474;48.824;9.384;2022-08-24T17:42:59;1.60;;;1.50;;
13785;SDS011;47474;48.824;9.384;2022-08-24T17:45:26;1.77;;;1.50;;
13785;SDS011;47474;48.824;9.384;2022-08-24T17:47:53;1.88;;;1.40;;
13785;SDS011;47474;48.824;9.384;2022-08-24T17:50:21;1.77;;;1.40;;
13785;SDS011;47474;48.824;9.384;2022-08-24T17:52:48;1.75;;;1.63;;
13785;SDS011;47474;48.824;9.384;2022-08-24T17:55:14;1.60;;;1.50;;
13785;SDS011;47474;48.824;9.384;2022-08-24T17:57:42;1.70;;;1.55;;
13785;SDS011;47474;48.824;9.384;2022-08-24T18:00:09;1.70;;;1.60;;
13785;SDS011;47474;48.824;9.384;2022-08-24T18:02:36;1.70;;;1.60;;
13785;SDS011;47474;48.824;9.384;2022-08-24T18:05:03;1.80;;;1.55;;
13785;SDS011;47474;48.824;9.384;2022-08-24T18:07:33;2.35;;;1.75;;
13785;SDS011;47474;48.824;9.384;2022-08-24T18:10:00;1.70;;;1.60;;
13785;SDS011;47474;48.824;9.384;2022-08-24T18:12:30;1.73;;;1.63;;
13785;SDS011;47474;48.824;9.384;2022-08-24T18:14:56;1.77;;;1.60;;
13785;SDS011;47474;48.824;9.384;2022-08-24T18:17:26;1.80;;;1.50;;
13785;SDS011;47474;48.824;9.384;2022-08-24T18:19:58;1.67;;;1.40;;
13785;SDS011;47474;48.824;9.384;2022-08-24T18:22:24;2.08;;;1.70;;
13785;SDS011;47474;48.824;9.384;2022-08-24T18:24:52;1.88;;;1.48;;
13785;SDS011;47474;48.824;9.384;2022-08-24T18:27:20;2.47;;;1.88;;
13785;SDS011;47474;48.824;9.384;2022-08-24T18:29:50;1.85;;;1.75;;
13785;SDS011;47474;48.824;9.384;2022-08-24T18:32:17;2.13;;;1.90;;
13785;SDS011;47474;48.824;9.384;2022-08-24T18:34:43;1.90;;;1.80;;
13785;SDS011;47474;48.824;9.384;2022-08-24T18:37:10;1.73;;;1.63;;
13785;SDS011;47474;48.824;9.384;2022-08-24T18:39:37;1.40;;;1.30;;
13785;SDS011;47474;48.824;9.384;2022-08-24T18:42:05;2.00;;;1.80;;
13785;SDS011;47474;48.824;9.384;2022-08-24T18:44:32;2.03;;;1.73;;
13785;SDS011;47474;48.824;9.384;2022-08-24T18:47:00;1.90;;;1.80;;
13785;SDS011;47474;48.824;9.384;2022-08-24T18:49:27;1.90;;;1.70;;
13785;SDS011;47474;48.824;9.384;2022-08-24T18:51:53;2.20;;;1.80;;
13785;SDS011;47474;48.824;9.384;2022-08-24T18:54:20;1.77;;;1.67;;
13785;SDS011;47474;48.824;9.384;2022-08-24T18:56:48;1.90;;;1.80;;